Impacts METAR Board
IDs:

KSSF - San Antonio/Stinson, TX, US

Updated at: 0000 UTC 30 May 2020
Potential Impact None Slight Moderate High
Time 29/12Z 29/13Z 29/14Z 29/15Z 29/16Z 29/17Z 29/18Z 29/19Z 29/20Z 29/21Z 29/22Z 29/23Z 30/00Z
Temp69 71 76 80 82 81 85 84 86 86 86 83 82
Dewpt66 67 67 67 66 63 63 63 63 63 58 59 59
Altim30.05 30.07 30.09 30.09 30.10 30.09 30.07 30.08 30.07 30.06 30.05 30.04 30.04
VIS10 10 10 10 10 10 10 10 10 10 10 10 10
CIG-- -- -- -- -- 55 -- 55 -- -- -- -- --
CoverCLRCLRCLRCLRCLRBKNFEWBKNFEWFEWCLRCLRCLR
FltCatVFRVFRVFRVFRVFRVFRVFRVFRVFRVFRVFRVFRVFR
WX--------------------------
WDir035036020201020206040606070
WSpd0 3 5 10 7 5 9 7 7 8 10 10 7
WGst-- -- -- 18 -- -- -- -- -- -- 18 -- --
Raw hourly METARs
KSSF 291153Z 00000KT 10SM CLR 21/19 A3005 RMK AO2 SLP168 T02060189 10228 20206 53013 $
KSSF 291253Z 35003KT 10SM CLR 22/19 A3007 RMK AO2 SLP175 T02170194 $
KSSF 291353Z 36005KT 10SM CLR 24/19 A3009 RMK AO2 SLP181 T02440194 $
KSSF 291453Z 02010G18KT 10SM CLR 27/19 A3009 RMK AO2 SLP177 T02670194 50011 $
KSSF 291553Z 02007KT 10SM CLR 28/19 A3010 RMK AO2 SLP183 T02780189 $
KSSF 291653Z 01005KT 10SM BKN055 27/17 A3009 RMK AO2 SLP179 T02720172 $
KSSF 291753Z 02009KT 10SM FEW050 29/17 A3007 RMK AO2 SLP171 T02940172 10294 20206 58005 $
KSSF 291853Z 02007KT 10SM BKN055 29/17 A3008 RMK AO2 SLP175 T02890172 $
KSSF 291953Z 06007KT 10SM FEW060 30/17 A3007 RMK AO2 SLP172 T03000172 $
KSSF 292053Z 04008KT 10SM FEW060 30/17 A3006 RMK AO2 SLP167 T03000172 58004 $
KSSF 292153Z 06010G18KT 10SM CLR 30/14 A3005 RMK AO2 SLP164 T03000144 $
KSSF 292253Z 06010KT 10SM CLR 28/15 A3004 RMK AO2 SLP163 T02830150 $
KSSF 292353Z 07007KT 10SM CLR 28/15 A3004 RMK AO2 SLP162 T02780150 10306 20278 56007 $